Lemsid, Western Sahara
Current Conditions -  °F | °C
As of 4:00 AM on Monday 22 Dec 2014 (Local Time) from GMML Reporting Station
Clear Clear  
Wind Chill: 55°   Ceiling: Unl
Heat Index: 55°   Visibility: 5mi
Dew Point: 50°   Wind: 14mph
Humidity: 82%   Direction: 80°E
Pressure: 30.18"   Gusts: NA
Location:  26.55°N, 13.85°W
Report Text: GMML 220400Z 08012KT 8000 NSC 13/10 Q1022 NOSIG
Loading
Personal Weather Stations






























Interactive Weather Map New forecast layout! Learn more

10-Day Weather Forecast

Advertisements
Track Severe Weather on mobile